Wanderley, Brazil
Current Conditions -  °F | °C
As of 10:00 PM on Friday 19 Dec 2014 (Local Time) from SBQV Reporting Station
Broken Clouds Broken Clouds  
Wind Chill: 72°   Ceiling: 700
Heat Index: 72°   Visibility: 6mi
Dew Point: 72°   Wind: 9mph
Humidity: 100%   Direction: 70°ENE
Pressure: 30.06"   Gusts: NA
Location:  12.12°S, 43.89°W
Report Text: SBQV 200100Z 07008KT 9999 BKN007 22/22 Q1018
Loading
Personal Weather Stations






























Interactive Weather Map New forecast layout! Learn more

10-Day Weather Forecast

Advertisements
Track Severe Weather on mobile